createdAt,value
2022-11-15T00:31:53.598Z,4.78
2022-11-15T00:33:07.715Z,4.14
2022-11-15T01:11:14.340Z,3.43
2022-11-15T03:05:28.291Z,4.70
2022-11-15T03:09:03.670Z,5.09
2022-11-15T03:15:38.808Z,2.53
2022-11-15T03:24:46.392Z,4.09
2022-11-15T03:39:13.236Z,3.61
2022-11-15T03:40:55.061Z,3.57
2022-11-15T04:46:44.687Z,3.94
2022-11-15T04:50:15.413Z,4.05
2022-11-15T04:51:18.198Z,3.68
2022-11-15T04:54:38.002Z,2.47
2022-11-15T04:55:41.104Z,1.81
2022-11-15T05:42:31.982Z,12.21
2022-11-15T05:43:38.944Z,8.92
2022-11-15T05:44:48.894Z,6.88
2022-11-15T05:45:52.064Z,6.21
2022-11-15T05:46:58.725Z,5.17
2022-11-15T05:48:07.517Z,5.89
2022-11-15T05:49:16.262Z,9.16
2022-11-15T05:50:20.384Z,16.51
2022-11-15T05:51:25.695Z,24.82
2022-11-15T05:52:34.674Z,27.31
2022-11-15T05:53:39.680Z,29.03
2022-11-15T05:54:42.650Z,24.96
2022-11-15T05:56:08.054Z,17.37
2022-11-15T05:58:14.351Z,8.94
2022-11-15T05:59:16.133Z,29.14
2022-11-15T06:00:19.305Z,27.92
2022-11-15T06:01:22.525Z,26.55
2022-11-15T06:02:24.772Z,19.20
2022-11-15T06:03:28.203Z,11.89
2022-11-15T06:04:30.477Z,8.13
2022-11-15T06:05:33.624Z,5.33
2022-11-15T06:06:35.771Z,5.86
2022-11-15T06:07:40.274Z,5.06
2022-11-15T06:08:42.409Z,5.48
2022-11-15T06:09:45.588Z,4.49
2022-11-15T06:10:48.836Z,3.49
2022-11-15T06:11:50.909Z,3.03
2022-11-15T06:12:59.237Z,4.06
2022-11-15T06:14:02.909Z,3.01
2022-11-15T06:15:06.647Z,3.75
2022-11-15T06:16:08.834Z,3.42
2022-11-15T06:17:11.894Z,2.45
2022-11-15T06:18:14.024Z,3.66
2022-11-15T06:19:17.710Z,3.35
2022-11-15T06:20:19.881Z,3.68
2022-11-15T06:21:23.033Z,3.83
2022-11-15T06:22:25.249Z,3.81
2022-11-15T06:23:33.601Z,3.86
2022-11-15T06:24:36.915Z,3.86
2022-11-15T06:25:39.096Z,3.60
2022-11-15T06:26:42.370Z,3.78
2022-11-15T06:27:44.616Z,3.89
2022-11-15T06:28:48.014Z,3.88
2022-11-15T06:29:51.406Z,4.22
2022-11-15T06:30:54.047Z,4.36
2022-11-15T06:31:57.216Z,4.31
2022-11-15T06:33:05.942Z,4.25
2022-11-15T06:34:09.455Z,4.76
2022-11-15T06:35:11.809Z,4.69
2022-11-15T06:36:17.933Z,4.97
2022-11-15T06:37:20.322Z,5.32
2022-11-15T06:38:23.441Z,4.83
2022-11-15T06:39:27.919Z,4.25
2022-11-15T06:40:30.150Z,4.28
2022-11-15T06:41:36.173Z,4.08
2022-11-15T06:42:38.293Z,4.09
2022-11-15T06:43:42.605Z,3.74
2022-11-15T06:44:45.787Z,3.75
2022-11-15T06:45:47.869Z,3.91
2022-11-15T06:46:50.979Z,4.12
2022-11-15T06:47:53.141Z,6.76
2022-11-15T06:48:56.485Z,7.16
2022-11-15T06:49:58.559Z,6.30
2022-11-15T06:51:03.889Z,6.42
2022-11-15T06:52:07.001Z,6.94
2022-11-15T06:53:09.108Z,6.32
2022-11-15T06:54:12.195Z,4.94
2022-11-15T06:55:16.874Z,2.80
2022-11-15T06:56:20.019Z,2.87
2022-11-15T06:57:23.556Z,4.53
2022-11-15T06:58:26.738Z,2.53
2022-11-15T06:59:28.871Z,2.54
2022-11-15T07:00:31.977Z,2.14
2022-11-15T07:01:35.241Z,2.39
2022-11-15T07:02:37.330Z,1.82
2022-11-15T07:03:43.526Z,2.00
2022-11-15T07:04:45.669Z,2.07
2022-11-15T07:05:54.220Z,1.74
2022-11-15T07:06:57.444Z,1.43
2022-11-15T07:08:00.274Z,1.43
2022-11-15T07:09:04.640Z,1.20
2022-11-15T07:10:09.202Z,1.61
2022-11-15T07:11:12.841Z,1.91
2022-11-15T07:12:15.914Z,1.34
2022-11-15T07:13:19.060Z,1.64
2022-11-15T07:14:21.185Z,1.62
2022-11-15T07:15:26.802Z,1.71
2022-11-15T07:16:28.908Z,1.82
2022-11-15T07:17:32.069Z,1.77
2022-11-15T07:18:36.993Z,3.02
2022-11-15T07:19:45.070Z,3.47
2022-11-15T07:20:48.409Z,2.39
2022-11-15T07:21:53.504Z,1.92
2022-11-15T07:23:02.908Z,1.37
2022-11-15T07:24:14.788Z,2.55
2022-11-15T07:25:16.982Z,2.64
2022-11-15T07:26:21.607Z,1.90
2022-11-15T07:27:23.762Z,1.48
2022-11-15T07:28:27.290Z,1.29
2022-11-15T07:29:30.357Z,1.03
2022-11-15T07:30:32.470Z,1.36
2022-11-15T07:31:35.586Z,2.20
2022-11-15T07:32:37.702Z,2.88
2022-11-15T07:33:40.822Z,2.94
2022-11-15T07:34:44.103Z,4.60
2022-11-15T07:35:49.247Z,4.28
2022-11-15T07:36:52.355Z,3.97
2022-11-15T07:37:56.069Z,3.46
2022-11-15T07:38:59.148Z,3.89
2022-11-15T07:40:02.242Z,2.79
2022-11-15T07:41:06.865Z,2.75
2022-11-15T07:42:29.839Z,3.91
2022-11-15T07:43:34.831Z,3.72
2022-11-15T07:44:37.181Z,2.99
2022-11-15T07:45:43.765Z,3.01
2022-11-15T07:46:46.937Z,3.67
2022-11-15T07:47:49.891Z,2.87
2022-11-15T07:48:53.000Z,2.40
2022-11-15T07:49:55.093Z,1.63
2022-11-15T07:50:58.206Z,1.46
2022-11-15T07:52:00.309Z,1.48
2022-11-15T07:53:03.399Z,1.32
2022-11-15T07:54:06.574Z,1.51
2022-11-15T07:55:09.424Z,3.36
2022-11-15T07:56:13.081Z,3.99
2022-11-15T07:57:16.607Z,2.07
2022-11-15T07:58:19.702Z,1.55
2022-11-15T07:59:21.829Z,1.82
2022-11-15T08:00:25.071Z,1.81
2022-11-15T08:01:28.189Z,2.81
2022-11-15T08:02:30.749Z,3.00
2022-11-15T08:03:34.764Z,2.23
2022-11-15T08:04:37.121Z,1.98
2022-11-15T08:05:41.936Z,2.95
2022-11-15T08:06:44.037Z,2.42
2022-11-15T08:07:50.970Z,3.03
2022-11-15T08:08:55.854Z,3.36
2022-11-15T08:09:58.114Z,3.75
2022-11-15T08:11:02.020Z,4.82
2022-11-15T08:12:05.533Z,4.35
2022-11-15T08:13:13.082Z,4.19
2022-11-15T08:14:15.282Z,3.51
2022-11-15T08:15:18.380Z,2.75
2022-11-15T08:16:20.489Z,2.43
2022-11-15T08:17:23.701Z,2.00
2022-11-15T08:18:25.810Z,1.85
2022-11-15T08:19:28.965Z,1.91
2022-11-15T08:20:33.240Z,3.63
2022-11-15T08:21:36.152Z,4.19
2022-11-15T08:22:39.296Z,2.89
2022-11-15T08:23:41.376Z,2.76
2022-11-15T08:24:44.583Z,2.23
2022-11-15T08:25:46.725Z,2.06
2022-11-15T08:26:49.846Z,1.99
2022-11-15T08:27:54.427Z,3.38
2022-11-15T08:28:57.888Z,2.62
2022-11-15T08:30:00.956Z,3.02
2022-11-15T08:31:04.517Z,3.65
2022-11-15T08:32:08.241Z,3.65
2022-11-15T08:33:13.569Z,3.67
2022-11-15T08:34:17.152Z,2.80
2022-11-15T08:35:22.586Z,2.10
2022-11-15T08:36:32.099Z,2.77
2022-11-15T08:37:40.045Z,2.88
2022-11-15T08:38:43.591Z,2.73
2022-11-15T08:39:46.695Z,2.32
2022-11-15T08:40:49.035Z,2.21
2022-11-15T08:41:52.114Z,2.66
2022-11-15T08:42:55.646Z,3.19
2022-11-15T08:44:00.172Z,2.54
2022-11-15T08:45:03.700Z,1.87
2022-11-15T08:46:06.864Z,1.56
2022-11-15T08:47:11.804Z,1.56
2022-11-15T08:48:14.874Z,1.97
2022-11-15T08:49:17.194Z,1.51
2022-11-15T08:50:22.244Z,1.68
2022-11-15T08:51:24.477Z,1.34
2022-11-15T08:52:27.715Z,1.94
2022-11-15T08:53:30.876Z,2.06
2022-11-15T08:54:32.962Z,1.26
2022-11-15T08:55:39.403Z,1.40
2022-11-15T08:56:42.729Z,2.14
2022-11-15T08:57:46.134Z,2.06
2022-11-15T08:58:49.236Z,1.91
2022-11-15T08:59:53.727Z,2.28
2022-11-15T09:00:56.053Z,1.83
2022-11-15T09:01:59.255Z,1.80
2022-11-15T09:03:05.316Z,2.09
2022-11-15T09:04:08.396Z,3.18
2022-11-15T09:05:11.514Z,2.31
2022-11-15T09:06:14.728Z,2.70
2022-11-15T09:07:18.813Z,1.84
2022-11-15T09:09:45.164Z,2.24
2022-11-15T09:10:48.230Z,2.16
2022-11-15T09:11:51.682Z,2.77
2022-11-15T09:12:54.838Z,3.57
2022-11-15T09:13:57.076Z,3.15
2022-11-15T09:15:01.525Z,2.60
2022-11-15T09:16:04.979Z,2.59
2022-11-15T09:17:10.538Z,2.62
2022-11-15T09:18:12.799Z,2.36
2022-11-15T09:19:16.527Z,2.76
2022-11-15T09:20:19.795Z,4.03
2022-11-15T09:21:22.890Z,3.43
2022-11-15T09:22:25.175Z,3.93
2022-11-15T09:23:29.075Z,3.34
2022-11-15T09:24:32.212Z,3.20
2022-11-15T09:25:34.524Z,2.99
2022-11-15T09:26:37.618Z,4.07
2022-11-15T09:27:39.781Z,3.62
2022-11-15T09:28:43.706Z,2.96
2022-11-15T09:29:46.810Z,2.83
2022-11-15T09:30:50.304Z,3.02
2022-11-15T09:31:54.174Z,2.97
2022-11-15T09:32:56.304Z,2.74
2022-11-15T09:33:59.636Z,3.26
2022-11-15T09:35:01.716Z,2.73
2022-11-15T09:36:07.477Z,2.26
2022-11-15T09:37:09.549Z,1.76
2022-11-15T09:38:12.658Z,1.74
2022-11-15T09:39:17.549Z,1.71
2022-11-15T09:40:23.619Z,2.90
2022-11-15T09:42:03.720Z,2.62
2022-11-15T09:43:25.584Z,2.75
2022-11-15T09:44:44.771Z,2.80
2022-11-15T09:46:02.096Z,3.09
2022-11-15T09:47:30.038Z,3.42
2022-11-15T09:48:55.068Z,2.78
2022-11-15T09:50:04.014Z,2.23
2022-11-15T09:51:14.505Z,2.83
2022-11-15T09:52:19.113Z,3.03
2022-11-15T09:54:01.027Z,3.17
2022-11-15T09:54:55.597Z,3.02
2022-11-15T09:56:02.517Z,2.80
2022-11-15T09:57:16.522Z,3.29
2022-11-15T09:58:29.887Z,2.84
2022-11-15T10:00:04.016Z,3.23
2022-11-15T10:01:28.081Z,3.38
2022-11-15T10:02:54.968Z,3.33
2022-11-15T10:04:00.232Z,3.28
2022-11-15T10:05:04.993Z,3.37
2022-11-15T10:06:27.448Z,2.34
2022-11-15T10:07:42.010Z,2.84
2022-11-15T10:09:00.770Z,3.04
2022-11-15T10:10:17.721Z,3.26
2022-11-15T10:11:40.341Z,2.90
2022-11-15T10:12:49.990Z,3.29
2022-11-15T10:13:56.788Z,2.99
2022-11-15T10:15:04.967Z,2.92
2022-11-15T10:16:29.755Z,2.75
2022-11-15T10:17:57.897Z,3.08
2022-11-15T10:19:14.297Z,2.74
2022-11-15T10:20:29.609Z,2.31
2022-11-15T10:21:50.805Z,2.84
2022-11-15T10:22:58.210Z,2.60
2022-11-15T10:24:00.522Z,2.80
2022-11-15T10:25:19.325Z,2.65
2022-11-15T10:26:25.484Z,2.49
2022-11-15T10:27:27.733Z,2.23
2022-11-15T10:28:32.799Z,2.52
2022-11-15T10:29:34.989Z,2.82
2022-11-15T10:30:41.701Z,2.69
2022-11-15T10:31:46.153Z,2.81
2022-11-15T10:32:50.500Z,3.09
2022-11-15T10:34:11.357Z,3.07
2022-11-15T10:35:27.244Z,2.50
2022-11-15T10:36:30.300Z,2.99
2022-11-15T10:37:34.376Z,2.74
2022-11-15T10:38:54.248Z,2.81
2022-11-15T10:40:06.951Z,2.74
2022-11-15T10:41:10.406Z,2.47
2022-11-15T10:42:27.597Z,2.02
2022-11-15T10:43:29.692Z,1.98
2022-11-15T10:44:34.220Z,2.36
2022-11-15T10:45:37.622Z,2.11
2022-11-15T10:46:47.782Z,2.05
2022-11-15T10:47:52.461Z,2.36
2022-11-15T10:48:55.560Z,2.09
2022-11-15T10:50:00.741Z,2.18
2022-11-15T10:51:23.634Z,2.09
2022-11-15T10:52:27.495Z,2.14
2022-11-15T10:53:42.397Z,2.21
2022-11-15T10:54:49.713Z,2.27
2022-11-15T10:55:56.454Z,2.41
2022-11-15T10:57:01.830Z,2.60
2022-11-15T10:58:07.894Z,2.45
2022-11-15T10:59:22.952Z,1.92
2022-11-15T11:00:33.038Z,2.64
2022-11-15T11:01:49.294Z,2.52
2022-11-15T11:03:02.076Z,2.61
2022-11-15T11:04:07.453Z,2.31
2022-11-15T11:05:36.414Z,1.99
2022-11-15T11:06:50.012Z,2.09
2022-11-15T11:07:57.801Z,2.47
2022-11-15T11:09:03.248Z,2.36
2022-11-15T11:10:49.817Z,2.71
2022-11-15T11:11:49.128Z,2.12
2022-11-15T11:12:51.227Z,2.29
2022-11-15T11:13:54.527Z,2.59
2022-11-15T11:14:57.817Z,1.97
2022-11-15T11:16:20.791Z,1.97
2022-11-15T11:17:34.128Z,1.91
2022-11-15T11:18:49.620Z,1.55
2022-11-15T11:20:04.519Z,1.79
2022-11-15T11:21:16.036Z,2.43
2022-11-15T11:22:25.981Z,1.93
2022-11-15T11:23:45.574Z,1.54
2022-11-15T11:25:02.115Z,2.02
2022-11-15T11:26:20.543Z,2.01
2022-11-15T11:27:37.968Z,2.09
2022-11-15T11:28:50.649Z,2.03
2022-11-15T11:30:07.297Z,1.68
2022-11-15T11:31:26.639Z,1.87
2022-11-15T11:33:01.822Z,1.98
2022-11-15T11:34:19.873Z,1.84
2022-11-15T11:35:30.028Z,1.77
2022-11-15T11:36:44.072Z,2.21
2022-11-15T11:37:52.137Z,2.02
2022-11-15T11:39:06.973Z,2.16
2022-11-15T11:40:26.581Z,2.45
2022-11-15T11:41:49.555Z,2.09
2022-11-15T11:43:00.460Z,2.10
2022-11-15T11:44:29.302Z,1.92
2022-11-15T11:46:09.781Z,1.78
2022-11-15T11:47:18.581Z,1.97
2022-11-15T11:48:35.880Z,2.17
2022-11-15T11:49:47.190Z,2.29
2022-11-15T11:50:50.273Z,2.11
2022-11-15T11:52:02.086Z,2.30
2022-11-15T11:53:14.434Z,1.94
2022-11-15T11:54:24.718Z,2.05
2022-11-15T11:55:34.976Z,2.27
2022-11-15T11:56:43.602Z,1.82
2022-11-15T11:57:54.473Z,1.94
2022-11-15T11:59:06.896Z,2.18
2022-11-15T12:00:20.954Z,1.43
2022-11-15T12:01:26.735Z,1.58
2022-11-15T12:02:36.569Z,1.90
2022-11-15T12:03:45.958Z,1.94
2022-11-15T12:04:58.720Z,1.80
2022-11-15T12:06:08.236Z,1.93
2022-11-15T12:07:19.482Z,1.68
2022-11-15T12:08:33.073Z,1.94
2022-11-15T12:09:43.626Z,2.35
2022-11-15T12:11:00.489Z,2.27
2022-11-15T12:12:11.206Z,1.92
2022-11-15T12:13:19.506Z,1.95
2022-11-15T12:14:31.300Z,1.83
2022-11-15T12:15:44.105Z,2.02
2022-11-15T12:16:46.329Z,1.98
2022-11-15T12:17:51.221Z,2.17
2022-11-15T12:18:57.457Z,6.34
2022-11-15T12:20:07.425Z,3.21
2022-11-15T12:21:18.137Z,2.43
2022-11-15T12:22:26.382Z,1.82
2022-11-15T12:23:34.561Z,2.98
2022-11-15T12:24:43.851Z,3.48
2022-11-15T12:25:53.587Z,2.53
2022-11-15T12:27:02.877Z,2.02
2022-11-15T12:28:17.849Z,2.34
2022-11-15T12:29:28.844Z,1.44
2022-11-15T12:30:50.361Z,2.44
2022-11-15T12:31:57.919Z,2.99
2022-11-15T12:33:03.412Z,2.80
2022-11-15T12:34:31.127Z,1.77
2022-11-15T12:35:42.107Z,1.95
2022-11-15T12:36:46.750Z,1.76
2022-11-15T12:37:51.155Z,1.30
2022-11-15T12:39:01.456Z,1.40
2022-11-15T12:40:25.635Z,1.20
2022-11-15T12:41:30.927Z,1.90
2022-11-15T12:42:40.733Z,1.70
2022-11-15T12:43:45.483Z,1.86
2022-11-15T12:45:00.358Z,1.50
2022-11-15T12:46:06.871Z,1.91
2022-11-15T12:47:26.615Z,2.59
2022-11-15T12:49:00.390Z,1.81
2022-11-15T12:50:02.514Z,2.07
2022-11-15T12:51:07.307Z,1.86
2022-11-15T12:52:11.626Z,1.99
2022-11-15T12:53:28.885Z,1.45
2022-11-15T12:55:08.416Z,1.71
2022-11-15T12:56:25.889Z,2.10
2022-11-15T12:57:35.419Z,2.19
2022-11-15T12:58:47.236Z,1.44
2022-11-15T12:59:50.511Z,1.32
2022-11-15T13:00:53.659Z,0.82
2022-11-15T13:02:03.749Z,1.17
2022-11-15T13:03:24.494Z,1.87
2022-11-15T13:04:30.512Z,2.02
2022-11-15T13:06:03.989Z,2.46
2022-11-15T13:07:09.425Z,1.62
2022-11-15T13:08:38.613Z,1.12
2022-11-15T13:09:56.900Z,1.60
2022-11-15T13:10:59.013Z,1.58
2022-11-15T13:12:03.469Z,1.72
2022-11-15T13:13:09.779Z,2.41
2022-11-15T13:14:50.677Z,2.25
2022-11-15T13:16:03.425Z,1.49
2022-11-15T13:17:28.396Z,2.18
2022-11-15T13:18:38.072Z,2.12
2022-11-15T13:19:40.261Z,1.51
2022-11-15T13:20:47.535Z,1.03
2022-11-15T13:22:09.312Z,1.63
2022-11-15T13:23:16.573Z,2.34
2022-11-15T13:24:20.789Z,2.01
2022-11-15T13:25:55.026Z,1.41
2022-11-15T13:26:58.216Z,1.94
2022-11-15T13:28:07.616Z,1.80
2022-11-15T13:29:19.256Z,2.06
2022-11-15T13:30:24.045Z,1.87
2022-11-15T13:31:35.914Z,2.22
2022-11-15T13:32:39.816Z,1.68
2022-11-15T13:33:43.160Z,1.60
2022-11-15T13:34:52.831Z,1.88
2022-11-15T13:35:58.999Z,1.46
2022-11-15T13:37:02.998Z,2.07
2022-11-15T13:38:06.833Z,1.67
2022-11-15T13:39:28.373Z,1.35
2022-11-15T13:40:36.406Z,1.73
2022-11-15T13:41:49.338Z,1.56
2022-11-15T13:42:53.154Z,1.71
2022-11-15T13:43:58.445Z,1.32
2022-11-15T13:45:04.709Z,1.40
2022-11-15T13:46:15.401Z,1.69
2022-11-15T13:47:21.997Z,1.42
2022-11-15T13:48:24.132Z,1.42
2022-11-15T13:49:33.202Z,1.78
2022-11-15T13:50:40.060Z,1.99
2022-11-15T13:51:49.570Z,1.70
2022-11-15T13:52:54.722Z,1.59
2022-11-15T13:54:00.781Z,2.13
2022-11-15T13:55:12.419Z,2.05
2022-11-15T13:56:17.195Z,1.63
2022-11-15T13:57:25.214Z,1.57
2022-11-15T13:58:27.675Z,1.98
2022-11-15T13:59:35.437Z,1.94
2022-11-15T14:00:42.682Z,2.26
2022-11-15T14:01:46.088Z,2.13
2022-11-15T14:02:49.999Z,1.28
2022-11-15T14:03:58.316Z,2.45
2022-11-15T14:05:07.872Z,2.09
2022-11-15T14:06:13.094Z,2.35
2022-11-15T14:07:21.105Z,2.72
2022-11-15T14:08:25.198Z,1.73
2022-11-15T14:09:35.484Z,2.81
2022-11-15T14:10:42.000Z,2.26
2022-11-15T14:11:56.173Z,1.83
2022-11-15T14:13:00.607Z,1.39
2022-11-15T14:14:16.584Z,3.01
2022-11-15T14:15:31.007Z,3.84
2022-11-15T14:16:37.584Z,3.13
2022-11-15T14:17:45.628Z,2.06
2022-11-15T14:18:53.530Z,2.01
2022-11-15T14:19:57.552Z,1.88
2022-11-15T14:21:08.610Z,2.42
2022-11-15T14:22:22.399Z,2.27
2022-11-15T14:23:28.559Z,2.59
2022-11-15T14:24:32.646Z,2.46
2022-11-15T14:25:37.164Z,2.38
2022-11-15T14:26:40.643Z,2.43
2022-11-15T14:27:45.359Z,1.99
2022-11-15T14:28:47.521Z,2.33
2022-11-15T14:29:50.845Z,2.51
2022-11-15T14:30:55.768Z,2.47
2022-11-15T14:32:16.177Z,2.14
2022-11-15T14:33:26.452Z,2.62
2022-11-15T14:34:28.635Z,1.30
2022-11-15T14:35:31.762Z,1.91
2022-11-15T14:36:34.877Z,2.50
2022-11-15T14:37:38.357Z,2.10
2022-11-15T14:38:41.823Z,2.00
2022-11-15T14:39:43.950Z,2.09
2022-11-15T14:40:47.133Z,2.57
2022-11-15T14:41:51.635Z,2.17
2022-11-15T14:42:54.696Z,1.99
2022-11-15T14:43:56.759Z,2.09
2022-11-15T14:45:00.374Z,2.72
2022-11-15T14:46:03.451Z,2.75
2022-11-15T14:47:05.650Z,2.97
2022-11-15T14:48:08.934Z,2.52
2022-11-15T14:49:13.959Z,3.06
2022-11-15T14:50:19.814Z,2.81
2022-11-15T14:51:22.897Z,2.61
2022-11-15T14:52:32.273Z,2.62
2022-11-15T14:53:37.349Z,2.68
2022-11-15T14:54:39.662Z,3.03
2022-11-15T14:55:42.908Z,3.44
2022-11-15T14:56:46.038Z,3.46
2022-11-15T14:57:50.638Z,4.34
2022-11-15T14:58:55.887Z,3.20
2022-11-15T14:59:59.244Z,3.13
2022-11-15T15:01:04.740Z,4.15
2022-11-15T15:02:19.016Z,3.63
2022-11-15T15:03:22.216Z,3.00
2022-11-15T15:04:25.431Z,3.89
2022-11-15T15:05:34.446Z,3.78
2022-11-15T15:06:36.661Z,3.16
2022-11-15T15:07:45.962Z,3.52
2022-11-15T15:08:51.507Z,2.63
2022-11-15T15:10:02.764Z,2.78
2022-11-15T15:11:21.799Z,2.58
2022-11-15T15:12:25.023Z,3.03
2022-11-15T15:13:31.309Z,3.35
2022-11-15T15:14:33.653Z,3.11
2022-11-15T15:15:39.063Z,2.56
2022-11-15T15:16:41.298Z,1.67
2022-11-15T15:17:44.614Z,3.02
2022-11-15T15:18:47.784Z,2.78
2022-11-15T15:19:49.959Z,2.88
2022-11-15T15:21:00.925Z,3.65
2022-11-15T15:22:03.284Z,2.92
2022-11-15T15:23:06.409Z,2.59
2022-11-15T15:24:15.845Z,2.51
2022-11-15T15:25:26.783Z,2.35
2022-11-15T15:26:29.024Z,2.89
2022-11-15T15:27:32.180Z,2.94
2022-11-15T15:28:38.133Z,2.80
2022-11-15T15:29:42.322Z,2.43
2022-11-15T15:30:44.744Z,2.49
2022-11-15T15:31:48.312Z,3.24
2022-11-15T15:32:50.985Z,3.58
2022-11-15T15:33:54.252Z,3.21
2022-11-15T15:34:56.373Z,3.41
2022-11-15T15:36:00.144Z,3.70
2022-11-15T15:37:10.212Z,3.61
2022-11-15T15:38:14.033Z,3.49
2022-11-15T15:39:16.520Z,3.52
2022-11-15T15:40:23.301Z,4.10
2022-11-15T15:41:25.593Z,3.77
2022-11-15T15:42:29.255Z,4.41
2022-11-15T15:43:32.368Z,3.76
2022-11-15T15:44:35.917Z,4.42
2022-11-15T15:45:41.400Z,4.50
2022-11-15T15:46:47.841Z,3.55
2022-11-15T15:47:52.972Z,3.71
2022-11-15T15:48:56.161Z,4.14
2022-11-15T15:49:58.418Z,3.77
2022-11-15T15:51:04.419Z,4.67
2022-11-15T15:52:39.342Z,3.66
2022-11-15T15:53:42.490Z,5.24
2022-11-15T15:54:44.876Z,5.43
2022-11-15T15:55:48.224Z,4.89
2022-11-15T15:56:55.919Z,6.57
2022-11-15T15:57:59.539Z,5.24
2022-11-15T15:59:01.722Z,3.61
2022-11-15T16:00:07.730Z,2.96
2022-11-15T16:01:11.031Z,9.65
2022-11-15T16:02:14.395Z,7.62
2022-11-15T16:03:17.773Z,6.08
2022-11-15T16:04:20.882Z,6.78
2022-11-15T16:05:24.475Z,4.97
2022-11-15T16:06:39.044Z,4.25
2022-11-15T16:07:44.038Z,4.03
2022-11-15T16:09:08.261Z,6.08
2022-11-15T16:10:22.449Z,4.27
2022-11-15T16:11:25.623Z,3.62
2022-11-15T16:12:27.999Z,3.37
2022-11-15T16:13:31.178Z,2.86
2022-11-15T16:14:33.755Z,2.80
2022-11-15T16:15:38.714Z,2.33
2022-11-15T16:16:40.867Z,3.14
2022-11-15T16:17:51.732Z,3.20
2022-11-15T16:18:54.669Z,3.31
2022-11-15T16:19:57.782Z,2.87
2022-11-15T16:21:01.609Z,3.09
2022-11-15T16:22:03.899Z,3.28
2022-11-15T16:23:10.171Z,3.33
2022-11-15T16:24:12.417Z,3.32
2022-11-15T16:25:15.673Z,3.04
2022-11-15T16:26:23.406Z,4.24
2022-11-15T16:27:26.558Z,4.49
2022-11-15T16:28:31.774Z,4.13
2022-11-15T16:29:34.289Z,3.98
2022-11-15T16:30:38.840Z,3.17
2022-11-15T16:31:41.237Z,3.13
2022-11-15T16:32:44.556Z,3.19
2022-11-15T16:33:48.367Z,3.44
2022-11-15T16:34:51.548Z,3.51
2022-11-15T16:35:54.886Z,4.14
2022-11-15T16:36:58.068Z,3.42
2022-11-15T16:38:01.257Z,3.62
2022-11-15T16:39:04.987Z,3.39
2022-11-15T16:40:25.199Z,3.44
2022-11-15T16:41:28.848Z,2.13
2022-11-15T16:42:30.933Z,1.89
2022-11-15T16:43:34.025Z,2.02
2022-11-15T16:44:36.189Z,2.33
2022-11-15T16:45:40.800Z,1.89
2022-11-15T16:46:43.848Z,3.31
2022-11-15T16:47:47.042Z,3.36
2022-11-15T16:48:49.252Z,3.33
2022-11-15T16:49:52.433Z,2.82
2022-11-15T16:50:58.146Z,2.63
2022-11-15T16:52:01.309Z,3.65
2022-11-15T16:53:04.418Z,3.37
2022-11-15T16:54:07.588Z,3.48
2022-11-15T16:55:09.994Z,3.27
2022-11-15T16:56:24.863Z,3.62
2022-11-15T16:57:26.998Z,2.72
2022-11-15T16:58:30.418Z,3.56
2022-11-15T16:59:38.114Z,3.78
2022-11-15T17:00:43.046Z,3.24
2022-11-15T17:01:51.573Z,3.09
2022-11-15T17:02:56.029Z,2.42
2022-11-15T17:03:59.648Z,3.06
2022-11-15T17:05:07.024Z,2.80
2022-11-15T17:06:15.075Z,3.00
2022-11-15T17:07:17.230Z,3.68
2022-11-15T17:08:22.003Z,2.85
2022-11-15T17:09:26.911Z,3.69
2022-11-15T17:10:35.683Z,3.33
2022-11-15T17:11:37.773Z,3.47
2022-11-15T17:12:40.857Z,3.74
2022-11-15T17:13:44.035Z,4.06
2022-11-15T17:14:47.296Z,4.22
2022-11-15T17:15:51.755Z,3.95
2022-11-15T17:16:58.139Z,4.90
2022-11-15T17:18:01.313Z,4.24
2022-11-15T17:19:04.590Z,4.64
2022-11-15T17:20:09.895Z,4.89
2022-11-15T17:21:17.552Z,4.14
2022-11-15T17:22:24.335Z,3.39
2022-11-15T17:24:56.423Z,3.68
2022-11-15T17:26:17.605Z,4.68
2022-11-15T17:27:24.503Z,3.51
2022-11-15T17:28:27.567Z,2.73
2022-11-15T17:29:31.065Z,2.91
2022-11-15T17:30:33.253Z,3.45
2022-11-15T17:31:56.694Z,3.39
2022-11-15T17:33:00.987Z,3.71
2022-11-15T17:34:05.194Z,2.67
2022-11-15T17:35:14.920Z,2.61
2022-11-15T17:36:18.611Z,3.04
2022-11-15T18:08:17.752Z,2.62
2022-11-15T18:09:21.815Z,2.78
2022-11-15T18:10:25.039Z,1.80
2022-11-15T18:11:29.233Z,1.83
2022-11-15T18:12:32.474Z,1.98
2022-11-15T18:13:35.288Z,1.91
2022-11-15T18:14:38.619Z,1.76
2022-11-15T18:15:40.775Z,1.89
2022-11-15T18:18:56.619Z,1.95
2022-11-15T18:20:42.814Z,1.95
2022-11-15T18:26:31.909Z,11.29
2022-11-15T18:27:48.425Z,11.20
2022-11-15T18:28:50.538Z,8.46
2022-11-15T18:29:53.687Z,6.64
2022-11-15T18:30:55.768Z,11.23
2022-11-15T18:31:59.346Z,11.66
2022-11-15T18:33:01.496Z,13.62
2022-11-15T18:34:10.459Z,7.82
2022-11-15T18:35:13.587Z,4.11
2022-11-15T18:36:18.389Z,4.31
2022-11-15T18:37:21.454Z,4.67
2022-11-15T18:38:24.142Z,6.39
2022-11-15T18:39:27.412Z,3.69
2022-11-15T18:40:29.563Z,3.47
2022-11-15T18:41:36.265Z,3.28
2022-11-15T18:42:39.400Z,6.54
2022-11-15T18:43:42.790Z,5.99
2022-11-15T18:44:45.970Z,3.97
2022-11-15T18:45:48.189Z,2.77
2022-11-15T18:46:52.135Z,2.00
2022-11-15T18:47:54.409Z,2.85
2022-11-15T18:48:59.128Z,5.52
2022-11-15T18:50:02.368Z,7.49
2022-11-15T18:51:07.014Z,5.25
2022-11-15T18:52:10.334Z,2.97
2022-11-15T18:53:12.693Z,2.08
2022-11-15T18:54:18.088Z,2.07
2022-11-15T18:55:21.206Z,5.60
2022-11-15T18:56:25.389Z,11.37
2022-11-15T18:57:31.297Z,9.47
2022-11-15T18:58:35.446Z,8.68
2022-11-15T18:59:38.718Z,5.50
2022-11-15T19:00:40.916Z,3.38
2022-11-15T19:01:47.764Z,4.88
2022-11-15T19:02:50.011Z,8.83
2022-11-15T19:03:54.837Z,4.96
2022-11-15T19:04:57.960Z,6.06
2022-11-15T19:06:04.035Z,9.84
2022-11-15T19:07:07.270Z,10.43
2022-11-15T19:08:09.497Z,7.84
2022-11-15T19:09:15.263Z,6.26
2022-11-15T19:10:17.605Z,8.74
2022-11-15T19:11:24.114Z,4.95
2022-11-15T19:12:27.263Z,3.80
2022-11-15T19:13:31.199Z,3.24
2022-11-15T19:14:34.535Z,4.19
2022-11-15T19:15:36.820Z,3.79
2022-11-15T19:16:42.246Z,4.05
2022-11-15T19:17:44.386Z,6.36
2022-11-15T19:18:47.508Z,7.03
2022-11-15T19:19:50.625Z,4.43
2022-11-15T19:20:53.840Z,4.33
2022-11-15T19:21:58.149Z,4.18
2022-11-15T19:23:01.349Z,3.61
2022-11-15T19:24:03.924Z,3.38
2022-11-15T19:25:08.549Z,3.54
2022-11-15T19:26:12.711Z,4.60
2022-11-15T19:27:15.793Z,8.27
2022-11-15T19:37:28.326Z,9.23
2022-11-15T19:38:31.090Z,10.14
2022-11-15T19:39:38.240Z,8.10
2022-11-15T19:40:43.050Z,4.19
2022-11-15T19:46:37.485Z,10.32
2022-11-15T19:57:42.255Z,3.89
2022-11-15T19:58:45.246Z,4.01
2022-11-15T19:59:48.437Z,3.58
2022-11-15T20:00:51.392Z,4.63
2022-11-15T20:01:54.576Z,5.51
2022-11-15T20:02:56.712Z,3.71
2022-11-15T20:04:01.848Z,4.47
2022-11-15T20:05:05.232Z,4.69
2022-11-15T20:06:09.326Z,4.99
2022-11-15T20:07:12.923Z,8.50
2022-11-15T20:08:15.316Z,8.73
2022-11-15T20:09:18.457Z,5.43
2022-11-15T20:12:29.953Z,7.45
2022-11-15T20:13:34.517Z,8.04
2022-11-15T20:14:49.776Z,4.37
2022-11-15T20:15:52.725Z,4.12
2022-11-15T20:16:58.241Z,3.95
2022-11-15T20:18:00.418Z,3.20
2022-11-15T20:19:03.597Z,3.34
2022-11-15T20:20:07.149Z,3.31
2022-11-15T20:21:11.164Z,6.92
2022-11-15T20:22:14.339Z,7.46
2022-11-15T20:23:16.987Z,3.54
2022-11-15T20:24:20.135Z,4.57
2022-11-15T20:25:22.444Z,4.27
2022-11-15T20:26:27.004Z,3.84
2022-11-15T20:27:30.246Z,3.61
2022-11-15T20:28:33.797Z,3.64
2022-11-15T20:30:10.946Z,4.15
2022-11-15T20:31:14.158Z,4.21
2022-11-15T20:32:16.792Z,5.19
2022-11-15T20:33:20.832Z,6.77
2022-11-15T20:34:31.501Z,6.66
2022-11-15T20:35:33.818Z,8.10
2022-11-15T20:36:37.108Z,9.19
2022-11-15T20:37:39.340Z,9.77
2022-11-15T20:38:43.573Z,6.05
2022-11-15T20:39:45.965Z,6.50
2022-11-15T20:42:14.579Z,4.38
2022-11-15T20:43:19.447Z,3.33
2022-11-15T20:44:22.717Z,2.80
2022-11-15T20:45:27.804Z,4.34
2022-11-15T20:46:31.075Z,4.14
2022-11-15T20:47:33.253Z,5.20
2022-11-15T20:48:36.685Z,3.72
2022-11-15T20:49:39.068Z,3.18
2022-11-15T20:50:43.781Z,2.71
2022-11-15T20:51:47.081Z,2.62
2022-11-15T20:52:49.634Z,2.72
2022-11-15T20:53:52.988Z,2.50
2022-11-15T20:54:55.189Z,2.64
2022-11-15T20:56:03.344Z,2.48
2022-11-15T20:57:06.567Z,2.72
2022-11-15T20:58:11.482Z,2.61
2022-11-15T20:59:14.703Z,2.40
2022-11-15T21:00:17.969Z,2.41
2022-11-15T21:01:24.321Z,2.36
2022-11-15T21:02:26.949Z,3.77
2022-11-15T21:03:31.009Z,3.40
2022-11-15T21:04:34.251Z,2.61
2022-11-15T21:05:39.395Z,3.56
2022-11-15T21:07:52.334Z,2.50
2022-11-15T21:09:31.044Z,2.38
2022-11-15T22:05:05.526Z,3.55
2022-11-15T22:16:33.437Z,3.66
2022-11-15T22:17:54.600Z,3.57
2022-11-15T22:18:58.158Z,4.51
2022-11-15T22:20:11.555Z,3.67
2022-11-15T22:21:23.906Z,4.30
2022-11-15T22:22:27.574Z,5.49
2022-11-15T22:23:32.611Z,4.04
2022-11-15T22:24:38.722Z,3.44
2022-11-15T22:25:41.030Z,3.08
2022-11-15T22:26:44.382Z,3.29
2022-11-15T22:27:46.759Z,3.53
2022-11-15T22:28:50.243Z,3.32
2022-11-15T22:29:53.584Z,3.85